createdAt,value
2023-02-04T00:01:59.495Z,-19.82
2023-02-04T00:04:26.061Z,-19.85
2023-02-04T00:06:52.547Z,-19.89
2023-02-04T00:09:19.086Z,-19.86
2023-02-04T00:11:45.577Z,-19.89
2023-02-04T00:14:12.719Z,-19.96
2023-02-04T00:16:39.253Z,-19.94
2023-02-04T00:19:05.873Z,-19.95
2023-02-04T00:21:32.306Z,-19.99
2023-02-04T00:23:58.793Z,-20.00
2023-02-04T00:26:25.397Z,-20.03
2023-02-04T00:28:51.920Z,-20.09
2023-02-04T00:31:18.534Z,-20.05
2023-02-04T00:33:45.414Z,-20.07
2023-02-04T00:36:11.997Z,-20.10
2023-02-04T00:38:38.497Z,-20.07
2023-02-04T00:41:06.516Z,-20.10
2023-02-04T00:43:32.969Z,-20.12
2023-02-04T00:45:59.511Z,-20.11
2023-02-04T00:48:26.864Z,-20.09
2023-02-04T00:50:54.076Z,-20.13
2023-02-04T00:53:20.577Z,-20.13
2023-02-04T00:55:47.172Z,-20.12
2023-02-04T00:58:13.662Z,-20.14
2023-02-04T01:00:40.422Z,-20.08
2023-02-04T01:03:07.189Z,-20.12
2023-02-04T01:05:33.767Z,-20.13
2023-02-04T01:08:00.217Z,-20.16
2023-02-04T01:10:26.955Z,-20.08
2023-02-04T01:12:53.645Z,-20.06
2023-02-04T01:15:20.114Z,-20.12
2023-02-04T01:17:46.754Z,-20.08
2023-02-04T01:20:13.268Z,-20.10
2023-02-04T01:22:39.748Z,-20.13
2023-02-04T01:25:06.828Z,-20.13
2023-02-04T01:27:33.443Z,-20.16
2023-02-04T01:29:59.954Z,-20.08
2023-02-04T01:32:26.473Z,-20.07
2023-02-04T01:34:53.113Z,-20.08
2023-02-04T01:37:19.579Z,-20.05
2023-02-04T01:39:46.110Z,-20.00
2023-02-04T01:42:13.073Z,-20.01
2023-02-04T01:44:40.011Z,-20.05
2023-02-04T01:47:06.733Z,-20.01
2023-02-04T01:49:33.429Z,-19.96
2023-02-04T01:51:59.921Z,-19.95
2023-02-04T01:54:26.991Z,-19.99
2023-02-04T01:56:55.224Z,-19.97
2023-02-04T01:59:22.119Z,-20.02
2023-02-04T02:01:51.036Z,-19.98
2023-02-04T02:04:20.541Z,-19.95
2023-02-04T02:06:50.019Z,-20.01
2023-02-04T02:09:16.548Z,-19.97
2023-02-04T02:11:43.374Z,-19.94
2023-02-04T02:14:09.999Z,-19.98
2023-02-04T02:16:36.612Z,-19.96
2023-02-04T02:19:04.288Z,-19.93
2023-02-04T02:21:37.166Z,-19.98
2023-02-04T02:24:26.700Z,-19.98
2023-02-04T02:26:54.091Z,-19.94
2023-02-04T02:29:20.757Z,-20.00
2023-02-04T02:31:47.368Z,-19.98
2023-02-04T02:34:13.956Z,-19.95
2023-02-04T02:36:40.653Z,-19.87
2023-02-04T02:39:07.231Z,-19.89
2023-02-04T02:41:35.220Z,-19.92
2023-02-04T02:44:02.512Z,-19.89
2023-02-04T02:46:29.064Z,-19.93
2023-02-04T02:48:55.694Z,-19.88
2023-02-04T02:51:22.204Z,-19.91
2023-02-04T02:53:49.459Z,-19.93
2023-02-04T02:56:17.888Z,-19.90
2023-02-04T02:58:44.424Z,-19.90
2023-02-04T03:01:11.702Z,-19.97
2023-02-04T03:03:41.217Z,-19.88
2023-02-04T03:06:13.986Z,-19.80
2023-02-04T03:08:41.121Z,-19.82
2023-02-04T03:11:07.598Z,-19.82
2023-02-04T03:13:34.338Z,-19.83
2023-02-04T03:16:01.022Z,-19.88
2023-02-04T03:18:28.013Z,-19.81
2023-02-04T03:20:54.691Z,-19.81
2023-02-04T03:23:21.270Z,-19.91
2023-02-04T03:25:47.965Z,-19.87
2023-02-04T03:28:14.679Z,-19.91
2023-02-04T03:30:41.218Z,-19.90
2023-02-04T03:33:07.790Z,-19.86
2023-02-04T03:35:34.258Z,-19.86
2023-02-04T03:38:00.745Z,-19.85
2023-02-04T03:40:27.204Z,-19.84
2023-02-04T03:42:53.879Z,-19.82
2023-02-04T03:45:20.429Z,-19.88
2023-02-04T03:47:46.908Z,-19.91
2023-02-04T03:50:14.341Z,-19.87
2023-02-04T03:52:40.835Z,-19.92
2023-02-04T03:55:07.458Z,-19.92
2023-02-04T03:57:34.407Z,-19.99
2023-02-04T04:00:00.886Z,-19.99
2023-02-04T04:02:27.403Z,-20.08
2023-02-04T04:04:54.004Z,-20.08
2023-02-04T04:07:20.480Z,-20.10
2023-02-04T04:09:46.939Z,-20.20
2023-02-04T04:12:13.501Z,-20.18
2023-02-04T04:14:39.964Z,-20.24
2023-02-04T04:17:07.091Z,-20.26
2023-02-04T04:19:33.696Z,-20.32
2023-02-04T04:22:00.189Z,-20.31
2023-02-04T04:24:26.869Z,-20.33
2023-02-04T04:26:53.329Z,-20.36
2023-02-04T04:29:19.782Z,-20.33
2023-02-04T04:31:46.227Z,-20.36
2023-02-04T04:34:12.927Z,-20.34
2023-02-04T04:36:39.357Z,-20.30
2023-02-04T04:39:05.790Z,-20.39
2023-02-04T04:41:32.357Z,-20.46
2023-02-04T04:43:58.818Z,-20.39
2023-02-04T04:46:25.285Z,-20.35
2023-02-04T04:48:51.909Z,-20.40
2023-02-04T04:51:18.368Z,-20.47
2023-02-04T04:53:44.840Z,-20.41
2023-02-04T04:56:11.705Z,-20.31
2023-02-04T04:58:38.252Z,-20.20
2023-02-04T05:01:04.858Z,-20.27
2023-02-04T05:03:31.375Z,-20.30
2023-02-04T05:05:57.900Z,-20.25
2023-02-04T05:08:24.369Z,-20.21
2023-02-04T05:10:50.914Z,-20.17
2023-02-04T05:13:17.343Z,-20.06
2023-02-04T05:15:43.848Z,-20.06
2023-02-04T05:18:10.465Z,-19.94
2023-02-04T05:20:37.177Z,-19.96
2023-02-04T05:23:05.604Z,-19.87
2023-02-04T05:25:32.551Z,-20.06
2023-02-04T05:27:59.063Z,-20.10
2023-02-04T05:30:25.655Z,-20.04
2023-02-04T05:32:52.149Z,-19.95
2023-02-04T05:35:18.684Z,-19.94
2023-02-04T05:37:45.231Z,-19.89
2023-02-04T05:40:12.800Z,-19.97
2023-02-04T05:42:39.484Z,-19.93
2023-02-04T05:45:06.249Z,-19.96
2023-02-04T05:47:32.735Z,-19.94
2023-02-04T05:49:59.214Z,-19.95
2023-02-04T05:52:25.650Z,-19.91
2023-02-04T05:54:52.139Z,-20.06
2023-02-04T05:57:18.671Z,-20.09
2023-02-04T05:59:45.555Z,-20.12
2023-02-04T06:02:12.035Z,-20.05
2023-02-04T06:04:38.547Z,-20.06
2023-02-04T06:07:05.102Z,-20.04
2023-02-04T06:09:31.615Z,-19.96
2023-02-04T06:11:58.087Z,-19.95
2023-02-04T06:14:24.660Z,-19.96
2023-02-04T06:16:51.181Z,-20.16
2023-02-04T06:19:17.696Z,-20.28
2023-02-04T06:21:44.151Z,-20.29
2023-02-04T06:24:10.760Z,-20.32
2023-02-04T06:26:37.224Z,-20.43
2023-02-04T06:29:03.974Z,-20.29
2023-02-04T06:31:30.740Z,-20.40
2023-02-04T06:33:57.272Z,-20.54
2023-02-04T06:36:23.828Z,-20.59
2023-02-04T06:38:50.344Z,-20.72
2023-02-04T06:41:16.888Z,-20.66
2023-02-04T06:43:43.513Z,-20.67
2023-02-04T06:46:10.009Z,-20.80
2023-02-04T06:48:36.530Z,-20.81
2023-02-04T06:51:03.071Z,-20.92
2023-02-04T06:53:29.679Z,-20.91
2023-02-04T06:55:56.228Z,-20.92
2023-02-04T06:58:22.719Z,-20.84
2023-02-04T07:00:49.237Z,-20.87
2023-02-04T07:03:15.757Z,-20.90
2023-02-04T07:05:42.199Z,-20.91
2023-02-04T07:08:08.708Z,-20.88
2023-02-04T07:10:35.458Z,-20.92
2023-02-04T07:13:02.173Z,-21.00
2023-02-04T07:15:28.779Z,-20.93
2023-02-04T07:17:55.432Z,-21.08
2023-02-04T07:20:21.907Z,-21.04
2023-02-04T07:22:48.367Z,-21.18
2023-02-04T07:25:16.047Z,-21.05
2023-02-04T07:27:42.605Z,-21.15
2023-02-04T07:30:10.648Z,-21.14
2023-02-04T07:32:37.260Z,-21.06
2023-02-04T07:35:04.068Z,-20.94
2023-02-04T07:37:30.656Z,-21.05
2023-02-04T07:39:57.174Z,-21.05
2023-02-04T07:42:23.877Z,-20.98
2023-02-04T07:44:50.454Z,-21.05
2023-02-04T07:47:17.060Z,-21.11
2023-02-04T07:49:43.518Z,-21.06
2023-02-04T07:52:10.221Z,-20.91
2023-02-04T07:54:36.821Z,-20.88
2023-02-04T07:57:03.365Z,-20.90
2023-02-04T07:59:29.943Z,-20.91
2023-02-04T08:01:56.640Z,-20.84
2023-02-04T08:04:23.225Z,-20.72
2023-02-04T08:06:49.816Z,-20.70
2023-02-04T08:09:16.332Z,-20.72
2023-02-04T08:11:42.937Z,-20.74
2023-02-04T08:14:09.483Z,-20.76
2023-02-04T08:16:36.111Z,-20.74
2023-02-04T08:19:02.729Z,-20.78
2023-02-04T08:21:29.263Z,-20.75
2023-02-04T08:23:55.854Z,-20.75
2023-02-04T08:26:22.570Z,-20.73
2023-02-04T08:28:49.196Z,-20.72
2023-02-04T08:31:15.835Z,-20.58
2023-02-04T08:33:42.487Z,-20.34
2023-02-04T08:36:09.087Z,-19.05
2023-02-04T08:38:35.636Z,-17.11
2023-02-04T08:41:02.496Z,-13.31
2023-02-04T08:43:29.213Z,-12.69
2023-02-04T08:45:55.718Z,-10.81
2023-02-04T08:48:22.244Z,-8.66
2023-02-04T08:50:51.742Z,-8.17
2023-02-04T08:53:18.333Z,-7.51
2023-02-04T08:55:45.010Z,-6.46
2023-02-04T08:58:11.987Z,-4.99
2023-02-04T09:00:38.533Z,-5.33
2023-02-04T09:03:05.176Z,-3.87
2023-02-04T09:05:31.931Z,-5.58
2023-02-04T09:07:58.479Z,-4.99
2023-02-04T09:10:25.074Z,-5.01
2023-02-04T09:12:56.008Z,-4.40
2023-02-04T09:15:24.506Z,-2.45
2023-02-04T09:17:54.110Z,-2.27
2023-02-04T09:20:21.594Z,-1.38
2023-02-04T09:22:50.276Z,-1.30
2023-02-04T09:25:17.100Z,-0.44
2023-02-04T09:27:43.844Z,-0.47
2023-02-04T09:30:10.955Z,-1.17
2023-02-04T09:32:37.469Z,-1.81
2023-02-04T09:35:04.386Z,-2.19
2023-02-04T09:37:30.975Z,-4.93
2023-02-04T09:39:57.695Z,-6.30
2023-02-04T09:42:25.410Z,-9.09
2023-02-04T09:44:52.227Z,-11.01
2023-02-04T09:47:22.621Z,-12.78
2023-02-04T09:49:49.171Z,-13.68
2023-02-04T09:52:17.021Z,-14.30
2023-02-04T09:54:43.709Z,-14.69
2023-02-04T09:57:19.059Z,-15.27
2023-02-04T09:59:46.218Z,-15.50
2023-02-04T10:02:24.476Z,-15.81
2023-02-04T10:04:57.723Z,-16.01
2023-02-04T10:07:26.444Z,-15.83
2023-02-04T10:09:54.398Z,-15.66
2023-02-04T10:12:21.440Z,-15.93
2023-02-04T10:14:47.979Z,-16.30
2023-02-04T10:17:19.688Z,-16.36
2023-02-04T10:19:46.246Z,-16.52
2023-02-04T10:22:17.831Z,-16.75
2023-02-04T10:24:44.460Z,-17.22
2023-02-04T10:27:15.452Z,-17.05
2023-02-04T10:29:43.487Z,-16.97
2023-02-04T10:32:34.436Z,-17.26
2023-02-04T10:35:02.486Z,-17.21
2023-02-04T10:37:30.310Z,-17.55
2023-02-04T10:39:56.879Z,-17.71
2023-02-04T10:42:28.390Z,-17.99
2023-02-04T10:44:55.536Z,-18.01
2023-02-04T10:47:24.985Z,-18.11
2023-02-04T10:50:02.870Z,-18.39
2023-02-04T10:52:37.538Z,-18.49
2023-02-04T10:55:05.686Z,-18.45
2023-02-04T10:57:39.657Z,-18.67
2023-02-04T11:00:21.493Z,-18.90
2023-02-04T11:02:58.275Z,-19.07
2023-02-04T11:05:30.408Z,-19.24
2023-02-04T11:07:57.014Z,-19.03
2023-02-04T11:10:27.929Z,-19.01
2023-02-04T11:12:54.491Z,-19.01
2023-02-04T11:15:41.048Z,-18.68
2023-02-04T11:18:27.770Z,-18.49
2023-02-04T11:20:56.912Z,-18.46
2023-02-04T11:23:26.959Z,-18.44
2023-02-04T11:26:08.299Z,-18.82
2023-02-04T11:28:50.471Z,-18.89
2023-02-04T11:31:19.684Z,-18.80
2023-02-04T11:33:46.932Z,-18.97
2023-02-04T11:36:15.169Z,-18.85
2023-02-04T11:38:49.888Z,-19.19
2023-02-04T11:41:33.289Z,-19.25
2023-02-04T11:43:59.876Z,-19.11
2023-02-04T11:46:27.073Z,-19.19
2023-02-04T11:48:54.860Z,-19.08
2023-02-04T11:51:26.432Z,-19.03
2023-02-04T11:53:53.133Z,-18.90
2023-02-04T11:56:20.923Z,-18.81
2023-02-04T11:58:51.024Z,-18.92
2023-02-04T12:01:22.124Z,-18.84
2023-02-04T12:03:50.624Z,-18.93
2023-02-04T12:06:25.388Z,-18.92
2023-02-04T12:08:52.181Z,-19.02
2023-02-04T12:11:36.069Z,-19.16
2023-02-04T12:14:10.395Z,-19.06
2023-02-04T12:16:46.794Z,-19.04
2023-02-04T12:19:13.843Z,-19.07
2023-02-04T12:21:40.843Z,-19.05
2023-02-04T12:24:07.502Z,-19.02
2023-02-04T12:26:34.038Z,-19.04
2023-02-04T12:29:02.967Z,-19.19
2023-02-04T12:31:30.380Z,-19.22
2023-02-04T12:33:57.289Z,-19.28
2023-02-04T12:36:24.548Z,-19.22
2023-02-04T12:38:51.243Z,-19.19
2023-02-04T12:41:19.869Z,-19.19
2023-02-04T12:43:46.793Z,-19.19
2023-02-04T12:46:13.268Z,-19.24
2023-02-04T12:48:41.144Z,-19.19
2023-02-04T12:51:08.176Z,-19.00
2023-02-04T12:53:34.866Z,-19.02
2023-02-04T12:56:01.648Z,-19.00
2023-02-04T12:58:28.179Z,-18.84
2023-02-04T13:00:54.914Z,-18.89
2023-02-04T13:03:22.772Z,-19.02
2023-02-04T13:05:49.257Z,-19.03
2023-02-04T13:08:15.994Z,-18.69
2023-02-04T13:10:42.950Z,-18.83
2023-02-04T13:13:09.643Z,-18.74
2023-02-04T13:15:36.183Z,-18.84
2023-02-04T13:18:02.845Z,-18.75
2023-02-04T13:20:29.295Z,-18.84
2023-02-04T13:22:55.838Z,-19.12
2023-02-04T13:25:22.517Z,-19.09
2023-02-04T13:27:49.161Z,-18.98
2023-02-04T13:30:16.059Z,-19.06
2023-02-04T13:32:43.529Z,-19.38
2023-02-04T13:35:10.167Z,-19.47
2023-02-04T13:37:38.120Z,-19.30
2023-02-04T13:40:06.186Z,-19.46
2023-02-04T13:42:32.657Z,-19.53
2023-02-04T13:44:59.250Z,-19.68
2023-02-04T13:47:25.840Z,-19.86
2023-02-04T13:49:52.342Z,-19.97
2023-02-04T13:52:19.249Z,-19.98
2023-02-04T13:54:46.103Z,-20.17
2023-02-04T13:57:13.246Z,-20.19
2023-02-04T13:59:39.897Z,-20.20
2023-02-04T14:02:06.616Z,-20.17
2023-02-04T14:04:33.155Z,-20.11
2023-02-04T14:06:59.792Z,-20.07
2023-02-04T14:09:26.444Z,-19.96
2023-02-04T14:11:52.953Z,-20.02
2023-02-04T14:14:19.460Z,-19.92
2023-02-04T14:16:46.146Z,-19.96
2023-02-04T14:19:14.141Z,-20.09
2023-02-04T14:21:40.648Z,-20.08
2023-02-04T14:24:07.343Z,-20.18
2023-02-04T14:26:33.918Z,-20.23
2023-02-04T14:29:00.444Z,-20.08
2023-02-04T14:31:27.150Z,-20.25
2023-02-04T14:33:53.846Z,-20.31
2023-02-04T14:36:22.150Z,-20.35
2023-02-04T14:38:48.908Z,-20.19
2023-02-04T14:41:17.349Z,-20.30
2023-02-04T14:43:44.076Z,-20.27
2023-02-04T14:46:10.854Z,-20.20
2023-02-04T14:48:37.378Z,-20.18
2023-02-04T14:51:04.704Z,-20.13
2023-02-04T14:53:31.396Z,-20.27
2023-02-04T14:55:57.975Z,-20.32
2023-02-04T14:58:26.933Z,-20.28
2023-02-04T15:00:54.309Z,-20.25
2023-02-04T15:03:20.814Z,-20.36
2023-02-04T15:05:47.385Z,-20.37
2023-02-04T15:08:13.888Z,-20.60
2023-02-04T15:10:41.322Z,-20.67
2023-02-04T15:13:08.136Z,-20.64
2023-02-04T15:15:35.038Z,-20.57
2023-02-04T15:18:01.684Z,-20.57
2023-02-04T15:20:28.471Z,-20.52
2023-02-04T15:22:56.429Z,-20.58
2023-02-04T15:25:23.857Z,-20.55
2023-02-04T15:27:50.671Z,-20.70
2023-02-04T15:30:17.605Z,-20.71
2023-02-04T15:32:46.046Z,-20.67
2023-02-04T15:35:13.605Z,-20.91
2023-02-04T15:37:40.136Z,-20.90
2023-02-04T15:40:08.591Z,-21.02
2023-02-04T15:42:35.695Z,-20.94
2023-02-04T15:45:02.211Z,-20.92
2023-02-04T15:47:28.666Z,-21.00
2023-02-04T15:49:55.103Z,-20.94
2023-02-04T15:52:24.925Z,-21.07
2023-02-04T15:54:51.752Z,-21.14
2023-02-04T15:57:18.265Z,-21.12
2023-02-04T15:59:44.755Z,-21.13
2023-02-04T16:02:11.774Z,-21.20
2023-02-04T16:04:38.469Z,-21.21
2023-02-04T16:07:08.158Z,-21.20
2023-02-04T16:09:35.708Z,-21.31
2023-02-04T16:12:02.274Z,-21.29
2023-02-04T16:14:28.918Z,-21.35
2023-02-04T16:16:55.351Z,-21.49
2023-02-04T16:19:21.821Z,-21.53
2023-02-04T16:21:48.257Z,-21.55
2023-02-04T16:24:18.305Z,-21.55
2023-02-04T16:26:45.435Z,-21.57
2023-02-04T16:29:11.932Z,-21.67
2023-02-04T16:31:38.618Z,-21.68
2023-02-04T16:34:05.211Z,-21.67
2023-02-04T16:36:31.821Z,-21.81
2023-02-04T16:38:59.420Z,-21.77
2023-02-04T16:41:26.180Z,-21.73
2023-02-04T16:43:52.818Z,-21.87
2023-02-04T16:46:19.350Z,-21.84
2023-02-04T16:48:45.856Z,-21.82
2023-02-04T16:51:12.967Z,-21.84
2023-02-04T16:53:39.701Z,-21.85
2023-02-04T16:56:06.757Z,-21.77
2023-02-04T16:58:33.244Z,-21.81
2023-02-04T17:00:59.896Z,-21.85
2023-02-04T17:03:28.062Z,-22.00
2023-02-04T17:05:54.697Z,-21.88
2023-02-04T17:08:21.158Z,-21.85
2023-02-04T17:11:06.747Z,-21.95
2023-02-04T17:13:34.227Z,-21.96
2023-02-04T17:16:01.297Z,-21.96
2023-02-04T17:18:31.956Z,-21.95
2023-02-04T17:20:59.455Z,-21.98
2023-02-04T17:23:26.943Z,-21.98
2023-02-04T17:25:53.473Z,-21.83
2023-02-04T17:28:20.028Z,-21.94
2023-02-04T17:30:46.626Z,-21.89
2023-02-04T17:33:13.171Z,-22.04
2023-02-04T17:35:39.809Z,-21.97
2023-02-04T17:38:06.356Z,-21.99
2023-02-04T17:40:33.000Z,-21.96
2023-02-04T17:42:59.586Z,-22.03
2023-02-04T17:45:26.229Z,-22.00
2023-02-04T17:47:52.885Z,-22.07
2023-02-04T17:50:19.358Z,-22.03
2023-02-04T17:52:45.848Z,-22.00
2023-02-04T17:55:30.633Z,-22.07
2023-02-04T17:58:02.376Z,-22.06
2023-02-04T18:00:30.712Z,-21.98
2023-02-04T18:02:57.622Z,-22.13
2023-02-04T18:05:26.849Z,-22.09
2023-02-04T18:08:01.307Z,-22.17
2023-02-04T18:10:34.207Z,-22.24
2023-02-04T18:13:09.638Z,-22.29
2023-02-04T18:15:36.803Z,-22.34
2023-02-04T18:18:12.909Z,-22.29
2023-02-04T18:20:39.589Z,-22.23
2023-02-04T18:23:11.837Z,-22.37
2023-02-04T18:25:38.306Z,-22.49
2023-02-04T18:28:13.478Z,-22.44
2023-02-04T18:30:40.055Z,-22.40
2023-02-04T18:33:15.637Z,-22.28
2023-02-04T18:35:45.547Z,-22.31
2023-02-04T18:38:28.414Z,-22.23
2023-02-04T18:41:20.916Z,-22.43
2023-02-04T18:44:02.094Z,-22.43
2023-02-04T18:46:33.150Z,-22.42
2023-02-04T18:49:27.395Z,-22.40
2023-02-04T18:51:54.959Z,-22.58
2023-02-04T18:54:29.022Z,-22.58
2023-02-04T18:57:21.741Z,-22.74
2023-02-04T18:59:48.495Z,-22.53
2023-02-04T19:02:36.224Z,-22.69
2023-02-04T19:05:30.000Z,-22.72
2023-02-04T19:08:05.910Z,-22.55
2023-02-04T19:10:34.531Z,-22.54
2023-02-04T19:13:37.125Z,-22.50
2023-02-04T19:16:21.599Z,-22.63
2023-02-04T19:18:48.573Z,-22.58
2023-02-04T19:21:22.746Z,-22.48
2023-02-04T19:23:50.238Z,-22.51
2023-02-04T19:26:29.320Z,-22.46
2023-02-04T19:28:56.580Z,-22.47
2023-02-04T19:31:23.142Z,-22.44
2023-02-04T19:33:55.329Z,-22.51
2023-02-04T19:36:37.711Z,-22.48
2023-02-04T19:39:43.363Z,-22.59
2023-02-04T19:42:36.370Z,-22.58
2023-02-04T19:45:21.958Z,-22.53
2023-02-04T19:47:50.079Z,-22.59
2023-02-04T19:50:23.630Z,-22.48
2023-02-04T19:53:09.642Z,-22.49
2023-02-04T19:55:42.625Z,-22.48
2023-02-04T19:58:23.337Z,-22.45
2023-02-04T20:01:08.294Z,-22.46
2023-02-04T20:03:41.877Z,-22.52
2023-02-04T20:06:29.913Z,-22.38
2023-02-04T20:09:18.221Z,-22.38
2023-02-04T20:11:55.589Z,-22.48
2023-02-04T20:14:25.242Z,-22.45
2023-02-04T20:17:00.241Z,-22.67
2023-02-04T20:19:35.587Z,-22.66
2023-02-04T20:22:17.228Z,-22.63
2023-02-04T20:24:47.501Z,-22.46
2023-02-04T20:27:20.894Z,-22.39
2023-02-04T20:29:48.044Z,-22.48
2023-02-04T20:32:17.916Z,-22.46
2023-02-04T20:34:44.473Z,-22.46
2023-02-04T20:37:23.682Z,-22.40
2023-02-04T20:39:50.111Z,-22.36
2023-02-04T20:42:28.320Z,-22.29
2023-02-04T20:44:58.146Z,-22.40
2023-02-04T20:47:25.951Z,-22.41
2023-02-04T20:49:56.151Z,-22.43
2023-02-04T20:52:48.608Z,-22.36
2023-02-04T20:55:28.533Z,-22.44
2023-02-04T20:58:16.007Z,-22.39
2023-02-04T21:00:43.688Z,-22.30
2023-02-04T21:03:13.085Z,-22.43
2023-02-04T21:05:40.150Z,-22.33
2023-02-04T21:08:44.750Z,-22.31
2023-02-04T21:11:11.787Z,-22.37
2023-02-04T21:13:38.809Z,-22.43
2023-02-04T21:16:06.664Z,-22.36
2023-02-04T21:18:36.089Z,-22.37
2023-02-04T21:21:04.388Z,-22.43
2023-02-04T21:23:30.910Z,-22.58
2023-02-04T21:25:57.417Z,-22.55
2023-02-04T21:28:24.005Z,-22.56
2023-02-04T21:30:50.654Z,-22.63
2023-02-04T21:33:17.365Z,-22.81
2023-02-04T21:35:43.931Z,-22.74
2023-02-04T21:38:10.521Z,-22.80
2023-02-04T21:40:38.210Z,-22.95
2023-02-04T21:43:07.478Z,-23.12
2023-02-04T21:45:35.942Z,-23.17
2023-02-04T21:48:03.111Z,-23.37
2023-02-04T21:50:30.309Z,-23.17
2023-02-04T21:52:57.107Z,-23.27
2023-02-04T21:55:23.659Z,-23.47
2023-02-04T21:57:50.643Z,-23.35
2023-02-04T22:00:19.771Z,-23.38
2023-02-04T22:02:46.287Z,-23.40
2023-02-04T22:05:13.266Z,-23.59
2023-02-04T22:07:40.521Z,-23.56
2023-02-04T22:10:09.739Z,-23.53
2023-02-04T22:12:36.292Z,-23.55
2023-02-04T22:15:04.489Z,-23.61
2023-02-04T22:17:31.172Z,-23.79
2023-02-04T22:19:57.706Z,-23.78
2023-02-04T22:22:24.220Z,-23.91
2023-02-04T22:24:50.665Z,-23.96
2023-02-04T22:27:17.334Z,-23.83
2023-02-04T22:29:43.905Z,-24.06
2023-02-04T22:32:10.418Z,-24.16
2023-02-04T22:34:36.969Z,-24.27
2023-02-04T22:37:03.540Z,-24.26
2023-02-04T22:39:30.050Z,-24.29
2023-02-04T22:41:56.702Z,-24.30
2023-02-04T22:44:23.400Z,-24.40
2023-02-04T22:46:49.926Z,-24.41
2023-02-04T22:49:16.397Z,-24.32
2023-02-04T22:51:42.952Z,-24.49
2023-02-04T22:54:09.449Z,-24.47
2023-02-04T22:56:35.964Z,-24.52
2023-02-04T22:59:02.696Z,-24.58
2023-02-04T23:01:29.218Z,-24.61
2023-02-04T23:03:55.728Z,-24.59
2023-02-04T23:06:22.656Z,-24.63
2023-02-04T23:08:49.651Z,-24.59
2023-02-04T23:11:18.462Z,-24.59
2023-02-04T23:13:45.734Z,-24.67
2023-02-04T23:16:15.010Z,-24.76
2023-02-04T23:18:41.513Z,-24.74
2023-02-04T23:21:10.105Z,-24.77
2023-02-04T23:23:36.975Z,-24.81
2023-02-04T23:26:04.218Z,-24.85
2023-02-04T23:28:31.183Z,-24.87
2023-02-04T23:30:58.201Z,-24.94
2023-02-04T23:33:24.749Z,-24.83
2023-02-04T23:35:51.458Z,-24.87
2023-02-04T23:38:17.999Z,-24.89
2023-02-04T23:40:44.681Z,-24.91
2023-02-04T23:43:11.695Z,-24.98
2023-02-04T23:45:38.477Z,-25.00
2023-02-04T23:48:05.746Z,-25.05
2023-02-04T23:50:32.660Z,-25.04
2023-02-04T23:52:59.132Z,-24.99
2023-02-04T23:55:25.633Z,-24.91
2023-02-04T23:57:52.199Z,-24.97
